createdAt,value
2023-08-14T00:01:05.204Z,97285.00
2023-08-14T00:03:33.112Z,97268.00
2023-08-14T00:06:00.275Z,97272.00
2023-08-14T00:08:27.255Z,97278.00
2023-08-14T00:10:56.127Z,97271.00
2023-08-14T00:13:23.279Z,97272.00
2023-08-14T00:15:50.749Z,97276.00
2023-08-14T00:18:17.904Z,97284.00
2023-08-14T00:20:45.804Z,97303.00
2023-08-14T00:23:12.854Z,97318.00
2023-08-14T00:25:39.937Z,97323.00
2023-08-14T00:28:06.846Z,97325.00
2023-08-14T00:30:33.806Z,97315.00
2023-08-14T00:33:00.746Z,97311.00
2023-08-14T00:35:27.762Z,97317.00
2023-08-14T00:37:54.625Z,97305.00
2023-08-14T00:40:21.442Z,97304.00
2023-08-14T00:42:48.597Z,97308.00
2023-08-14T00:45:17.275Z,97295.00
2023-08-14T00:47:47.337Z,97290.00
2023-08-14T00:50:15.154Z,97289.00
2023-08-14T00:52:45.836Z,97291.00
2023-08-14T00:55:19.924Z,97293.00
2023-08-14T00:57:46.912Z,97299.00
2023-08-14T01:00:14.756Z,97287.00
2023-08-14T01:02:43.748Z,97289.00
2023-08-14T01:05:11.056Z,97282.00
2023-08-14T01:07:38.580Z,97278.00
2023-08-14T01:10:08.186Z,97273.00
2023-08-14T01:12:51.766Z,97272.00
2023-08-14T01:15:28.147Z,97268.00
2023-08-14T01:18:01.151Z,97255.00
2023-08-14T01:20:32.866Z,97258.00
2023-08-14T01:23:29.729Z,97260.00
2023-08-14T01:25:57.039Z,97259.00
2023-08-14T01:28:24.359Z,97256.00
2023-08-14T01:30:51.501Z,97254.00
2023-08-14T01:33:18.352Z,97265.00
2023-08-14T01:35:57.002Z,97254.00
2023-08-14T01:39:00.971Z,97254.00
2023-08-14T01:41:52.794Z,97253.00
2023-08-14T01:44:23.990Z,97256.00
2023-08-14T01:46:54.152Z,97260.00
2023-08-14T01:49:21.623Z,97255.00
2023-08-14T01:51:50.733Z,97260.00
2023-08-14T01:54:17.787Z,97258.00
2023-08-14T01:56:44.669Z,97256.00
2023-08-14T01:59:11.541Z,97256.00
2023-08-14T02:01:38.379Z,97253.00
2023-08-14T02:04:07.714Z,97239.00
2023-08-14T02:06:34.807Z,97235.00
2023-08-14T02:09:01.704Z,97231.00
2023-08-14T02:11:28.576Z,97238.00
2023-08-14T02:13:55.409Z,97234.00
2023-08-14T02:16:22.283Z,97223.00
2023-08-14T02:18:49.174Z,97224.00
2023-08-14T02:21:17.266Z,97224.00
2023-08-14T02:23:44.073Z,97226.00
2023-08-14T02:26:10.893Z,97228.00
2023-08-14T02:28:37.685Z,97228.00
2023-08-14T02:31:05.986Z,97236.00
2023-08-14T02:33:33.171Z,97231.00
2023-08-14T02:36:00.057Z,97229.00
2023-08-14T02:38:26.961Z,97229.00
2023-08-14T02:40:53.971Z,97233.00
2023-08-14T02:43:20.799Z,97232.00
2023-08-14T02:45:47.708Z,97232.00
2023-08-14T02:48:14.548Z,97227.00
2023-08-14T02:50:41.386Z,97236.00
2023-08-14T02:53:08.207Z,97233.00
2023-08-14T02:55:35.033Z,97241.00
2023-08-14T02:58:01.871Z,97240.00
2023-08-14T03:00:28.779Z,97235.00
2023-08-14T03:02:55.814Z,97239.00
2023-08-14T03:05:22.796Z,97245.00
2023-08-14T03:07:49.623Z,97235.00
2023-08-14T03:10:16.560Z,97249.00
2023-08-14T03:12:43.377Z,97242.00
2023-08-14T03:15:10.721Z,97242.00
2023-08-14T03:17:37.582Z,97247.00
2023-08-14T03:20:05.890Z,97236.00
2023-08-14T03:22:32.773Z,97230.00
2023-08-14T03:24:59.597Z,97219.00
2023-08-14T03:27:26.474Z,97231.00
2023-08-14T03:29:53.361Z,97226.00
2023-08-14T03:32:20.450Z,97227.00
2023-08-14T03:34:47.471Z,97219.00
2023-08-14T03:37:14.324Z,97227.00
2023-08-14T03:39:41.235Z,97227.00
2023-08-14T03:42:08.048Z,97241.00
2023-08-14T03:44:34.951Z,97236.00
2023-08-14T03:47:01.817Z,97234.00
2023-08-14T03:49:28.636Z,97235.00
2023-08-14T03:51:55.496Z,97239.00
2023-08-14T03:54:22.385Z,97257.00
2023-08-14T03:56:49.237Z,97249.00
2023-08-14T03:59:16.145Z,97259.00
2023-08-14T04:01:44.464Z,97253.00
2023-08-14T04:04:11.498Z,97249.00
2023-08-14T04:06:38.464Z,97248.00
2023-08-14T04:09:06.420Z,97244.00
2023-08-14T04:11:34.096Z,97242.00
2023-08-14T04:14:01.071Z,97236.00
2023-08-14T04:16:42.407Z,97235.00
2023-08-14T04:19:13.649Z,97234.00
2023-08-14T04:21:40.610Z,97233.00
2023-08-14T04:24:08.691Z,97242.00
2023-08-14T04:26:37.819Z,97243.00
2023-08-14T04:29:09.057Z,97252.00
2023-08-14T04:31:37.530Z,97244.00
2023-08-14T04:34:05.527Z,97242.00
2023-08-14T04:36:34.152Z,97247.00
2023-08-14T04:39:02.039Z,97248.00
2023-08-14T04:41:29.075Z,97253.00
2023-08-14T04:43:56.545Z,97245.00
2023-08-14T04:46:49.506Z,97243.00
2023-08-14T04:49:25.727Z,97234.00
2023-08-14T04:51:52.686Z,97240.00
2023-08-14T04:54:19.613Z,97242.00
2023-08-14T04:56:46.526Z,97239.00
2023-08-14T04:59:13.352Z,97235.00
2023-08-14T05:01:40.221Z,97246.00
2023-08-14T05:04:07.503Z,97259.00
2023-08-14T05:06:34.415Z,97258.00
2023-08-14T05:09:04.416Z,97255.00
2023-08-14T05:11:40.621Z,97247.00
2023-08-14T05:14:07.456Z,97236.00
2023-08-14T05:16:34.460Z,97243.00
2023-08-14T05:19:01.291Z,97247.00
2023-08-14T05:21:28.108Z,97241.00
2023-08-14T05:23:54.977Z,97243.00
2023-08-14T05:26:21.826Z,97247.00
2023-08-14T05:28:48.662Z,97256.00
2023-08-14T05:31:15.637Z,97253.00
2023-08-14T05:33:42.500Z,97253.00
2023-08-14T05:36:09.327Z,97259.00
2023-08-14T05:38:36.179Z,97249.00
2023-08-14T05:41:03.041Z,97241.00
2023-08-14T05:43:29.976Z,97233.00
2023-08-14T05:45:56.831Z,97235.00
2023-08-14T05:48:23.798Z,97239.00
2023-08-14T05:50:55.699Z,97235.00
2023-08-14T05:53:23.234Z,97241.00
2023-08-14T05:55:50.204Z,97235.00
2023-08-14T05:58:17.119Z,97225.00
2023-08-14T06:00:44.112Z,97223.00
2023-08-14T06:03:11.173Z,97217.00
2023-08-14T06:05:38.249Z,97221.00
2023-08-14T06:08:06.065Z,97234.00
2023-08-14T06:10:32.984Z,97228.00
2023-08-14T06:12:59.872Z,97229.00
2023-08-14T06:15:26.746Z,97227.00
2023-08-14T06:17:54.016Z,97231.00
2023-08-14T06:20:21.423Z,97229.00
2023-08-14T06:22:48.486Z,97226.00
2023-08-14T06:25:17.088Z,97235.00
2023-08-14T06:27:44.156Z,97236.00
2023-08-14T06:30:12.535Z,97232.00
2023-08-14T06:32:40.126Z,97239.00
2023-08-14T06:35:08.434Z,97241.00
2023-08-14T06:37:36.121Z,97237.00
2023-08-14T06:40:04.999Z,97233.00
2023-08-14T06:42:31.962Z,97224.00
2023-08-14T06:44:59.044Z,97230.00
2023-08-14T06:47:26.163Z,97224.00
2023-08-14T06:49:53.079Z,97226.00
2023-08-14T06:52:20.473Z,97227.00
2023-08-14T06:54:47.507Z,97227.00
2023-08-14T06:57:14.388Z,97233.00
2023-08-14T06:59:41.325Z,97229.00
2023-08-14T07:02:08.245Z,97237.00
2023-08-14T07:04:35.188Z,97239.00
2023-08-14T07:07:02.077Z,97239.00
2023-08-14T07:09:29.370Z,97237.00
2023-08-14T07:11:56.216Z,97247.00
2023-08-14T07:14:23.130Z,97248.00
2023-08-14T07:16:50.045Z,97262.00
2023-08-14T07:19:18.753Z,97259.00
2023-08-14T07:21:46.347Z,97261.00
2023-08-14T07:24:13.743Z,97258.00
2023-08-14T07:26:42.126Z,97246.00
2023-08-14T07:29:09.604Z,97255.00
2023-08-14T07:31:36.582Z,97245.00
2023-08-14T07:34:03.465Z,97245.00
2023-08-14T07:36:30.312Z,97240.00
2023-08-14T07:38:57.372Z,97237.00
2023-08-14T07:41:24.359Z,97248.00
2023-08-14T07:43:51.275Z,97247.00
2023-08-14T07:46:19.408Z,97245.00
2023-08-14T07:48:46.488Z,97244.00
2023-08-14T07:51:13.418Z,97246.00
2023-08-14T07:53:40.254Z,97253.00
2023-08-14T07:56:07.143Z,97247.00
2023-08-14T07:58:34.067Z,97253.00
2023-08-14T08:01:01.077Z,97249.00
2023-08-14T08:03:27.965Z,97249.00
2023-08-14T08:05:54.833Z,97261.00
2023-08-14T08:08:21.765Z,97260.00
2023-08-14T08:10:48.645Z,97257.00
2023-08-14T08:13:15.604Z,97255.00
2023-08-14T08:15:42.866Z,97260.00
2023-08-14T08:18:09.993Z,97260.00
2023-08-14T08:20:37.323Z,97258.00
2023-08-14T08:23:05.151Z,97248.00
2023-08-14T08:25:32.148Z,97236.00
2023-08-14T08:27:59.342Z,97242.00
2023-08-14T08:30:26.341Z,97252.00
2023-08-14T08:32:53.283Z,97249.00
2023-08-14T08:35:20.333Z,97247.00
2023-08-14T08:37:47.257Z,97240.00
2023-08-14T08:40:14.195Z,97235.00
2023-08-14T08:42:41.515Z,97233.00
2023-08-14T08:45:10.553Z,97238.00
2023-08-14T08:47:40.628Z,97234.00
2023-08-14T08:50:09.104Z,97237.00
2023-08-14T08:52:36.259Z,97240.00
2023-08-14T08:55:04.041Z,97241.00
2023-08-14T08:57:31.597Z,97240.00
2023-08-14T09:00:02.329Z,97227.00
2023-08-14T09:02:29.745Z,97231.00
2023-08-14T09:04:57.045Z,97240.00
2023-08-14T09:07:24.099Z,97235.00
2023-08-14T09:09:51.091Z,97240.00
2023-08-14T09:12:18.262Z,97241.00
2023-08-14T09:15:05.314Z,97231.00
2023-08-14T09:17:32.682Z,97233.00
2023-08-14T09:20:03.410Z,97233.00
2023-08-14T09:22:32.951Z,97224.00
2023-08-14T09:25:01.646Z,97223.00
2023-08-14T09:27:28.572Z,97226.00
2023-08-14T09:29:56.269Z,97215.00
2023-08-14T09:32:25.378Z,97214.00
2023-08-14T09:35:02.755Z,97217.00
2023-08-14T09:37:30.291Z,97214.00
2023-08-14T09:40:16.786Z,97207.00
2023-08-14T09:42:46.873Z,97220.00
2023-08-14T09:45:24.672Z,97226.00
2023-08-14T09:47:52.905Z,97225.00
2023-08-14T09:50:22.353Z,97217.00
2023-08-14T09:52:50.202Z,97211.00
2023-08-14T09:55:17.642Z,97216.00
2023-08-14T09:57:45.727Z,97210.00
2023-08-14T10:00:13.992Z,97210.00
2023-08-14T10:02:45.590Z,97208.00
2023-08-14T10:05:13.540Z,97205.00
2023-08-14T10:07:41.356Z,97204.00
2023-08-14T10:10:09.577Z,97196.00
2023-08-14T10:12:53.303Z,97203.00
2023-08-14T10:15:27.505Z,97205.00
2023-08-14T10:18:00.738Z,97205.00
2023-08-14T10:20:34.875Z,97197.00
2023-08-14T10:23:03.561Z,97194.00
2023-08-14T10:25:31.033Z,97199.00
2023-08-14T10:27:58.608Z,97203.00
2023-08-14T10:30:26.617Z,97197.00
2023-08-14T10:32:54.011Z,97199.00
2023-08-14T10:35:22.869Z,97197.00
2023-08-14T10:38:04.392Z,97195.00
2023-08-14T10:40:37.192Z,97201.00
2023-08-14T10:43:06.821Z,97198.00
2023-08-14T10:45:34.607Z,97188.00
2023-08-14T10:48:10.036Z,97186.00
2023-08-14T10:50:37.306Z,97185.00
2023-08-14T10:53:06.346Z,97185.00
2023-08-14T10:55:38.068Z,97188.00
2023-08-14T10:58:36.894Z,97184.00
2023-08-14T11:01:11.843Z,97183.00
2023-08-14T11:03:59.932Z,97184.00
2023-08-14T11:06:51.456Z,97191.00
2023-08-14T11:09:18.303Z,97192.00
2023-08-14T11:11:48.570Z,97191.00
2023-08-14T11:14:15.937Z,97187.00
2023-08-14T11:16:48.660Z,97192.00
2023-08-14T11:19:18.710Z,97185.00
2023-08-14T11:21:50.092Z,97184.00
2023-08-14T11:24:16.959Z,97183.00
2023-08-14T11:26:43.937Z,97183.00
2023-08-14T11:29:10.785Z,97181.00
2023-08-14T11:31:42.020Z,97173.00
2023-08-14T11:34:16.107Z,97170.00
2023-08-14T11:37:06.681Z,97179.00
2023-08-14T11:39:35.464Z,97179.00
2023-08-14T11:42:04.461Z,97178.00
2023-08-14T11:44:31.690Z,97167.00
2023-08-14T11:46:59.347Z,97169.00
2023-08-14T11:49:26.410Z,97168.00
2023-08-14T11:51:54.857Z,97169.00
2023-08-14T11:54:22.296Z,97159.00
2023-08-14T11:56:49.537Z,97159.00
2023-08-14T11:59:19.167Z,97163.00
2023-08-14T12:01:46.163Z,97166.00
2023-08-14T12:04:13.256Z,97158.00
2023-08-14T12:06:40.213Z,97159.00
2023-08-14T12:09:11.656Z,97156.00
2023-08-14T12:11:40.211Z,97164.00
2023-08-14T12:14:08.856Z,97153.00
2023-08-14T12:16:40.872Z,97151.00
2023-08-14T12:19:12.637Z,97148.00
2023-08-14T12:21:40.122Z,97147.00
2023-08-14T12:24:07.477Z,97147.00
2023-08-14T12:26:46.085Z,97146.00
2023-08-14T12:29:16.345Z,97145.00
2023-08-14T12:31:43.463Z,97145.00
2023-08-14T12:34:10.447Z,97132.00
2023-08-14T12:36:37.394Z,97132.00
2023-08-14T12:39:04.621Z,97140.00
2023-08-14T12:41:31.889Z,97133.00
2023-08-14T12:43:59.006Z,97134.00
2023-08-14T12:46:26.831Z,97129.00
2023-08-14T12:48:53.812Z,97130.00
2023-08-14T12:51:20.767Z,97126.00
2023-08-14T12:53:47.679Z,97120.00
2023-08-14T12:58:48.450Z,97116.00
2023-08-14T13:01:16.356Z,97114.00
2023-08-14T13:03:43.390Z,97110.00
2023-08-14T13:06:10.364Z,97101.00
2023-08-14T13:08:37.302Z,97108.00
2023-08-14T13:11:05.055Z,97105.00
2023-08-14T13:13:32.000Z,97100.00
2023-08-14T13:15:59.639Z,97092.00
2023-08-14T13:18:26.525Z,97091.00
2023-08-14T13:20:53.413Z,97082.00
2023-08-14T13:23:20.320Z,97079.00
2023-08-14T13:25:47.450Z,97073.00
2023-08-14T13:28:14.282Z,97071.00
2023-08-14T13:30:44.099Z,97073.00
2023-08-14T13:33:13.049Z,97085.00
2023-08-14T13:35:40.018Z,97076.00
2023-08-14T13:38:07.271Z,97079.00
2023-08-14T13:40:34.254Z,97081.00
2023-08-14T13:43:01.308Z,97090.00
2023-08-14T13:45:30.520Z,97087.00
2023-08-14T13:47:58.708Z,97087.00
2023-08-14T13:50:33.103Z,97089.00
2023-08-14T13:53:02.939Z,97097.00
2023-08-14T13:55:33.897Z,97088.00
2023-08-14T13:58:02.687Z,97094.00
2023-08-14T14:00:31.137Z,97089.00
2023-08-14T14:03:00.138Z,97090.00
2023-08-14T14:05:28.412Z,97096.00
2023-08-14T14:07:57.147Z,97096.00
2023-08-14T14:10:26.528Z,97093.00
2023-08-14T14:15:23.702Z,97098.00
2023-08-14T14:17:50.822Z,97101.00
2023-08-14T14:20:18.148Z,97098.00
2023-08-14T14:22:45.354Z,97093.00
2023-08-14T14:25:13.947Z,97091.00
2023-08-14T14:27:40.852Z,97085.00
2023-08-14T14:30:08.753Z,97087.00
2023-08-14T14:32:36.257Z,97089.00
2023-08-14T14:35:03.959Z,97091.00
2023-08-14T14:37:31.577Z,97086.00
2023-08-14T14:39:58.782Z,97095.00
2023-08-14T14:42:26.091Z,97097.00
2023-08-14T14:44:54.713Z,97091.00
2023-08-14T14:47:24.337Z,97092.00
2023-08-14T14:49:51.810Z,97093.00
2023-08-14T14:52:18.835Z,97088.00
2023-08-14T14:54:45.817Z,97093.00
2023-08-14T14:57:12.784Z,97088.00
2023-08-14T14:59:41.333Z,97091.00
2023-08-14T15:02:19.109Z,97082.00
2023-08-14T15:04:55.064Z,97078.00
2023-08-14T15:07:22.186Z,97075.00
2023-08-14T15:09:49.166Z,97083.00
2023-08-14T15:12:16.130Z,97080.00
2023-08-14T15:14:42.948Z,97075.00
2023-08-14T15:17:09.857Z,97068.00
2023-08-14T15:19:36.722Z,97072.00
2023-08-14T15:22:03.569Z,97068.00
2023-08-14T15:24:30.404Z,97070.00
2023-08-14T15:26:57.213Z,97071.00
2023-08-14T15:29:24.060Z,97069.00
2023-08-14T15:31:50.866Z,97068.00
2023-08-14T15:34:17.772Z,97075.00
2023-08-14T15:36:44.604Z,97067.00
2023-08-14T15:39:11.489Z,97073.00
2023-08-14T15:41:38.422Z,97062.00
2023-08-14T15:44:07.751Z,97058.00
2023-08-14T15:46:35.920Z,97065.00
2023-08-14T15:49:02.959Z,97066.00
2023-08-14T15:51:30.108Z,97063.00
2023-08-14T15:53:56.969Z,97066.00
2023-08-14T15:56:23.966Z,97062.00
2023-08-14T15:58:50.846Z,97062.00
2023-08-14T16:01:18.096Z,97057.00
2023-08-14T16:03:45.035Z,97061.00
2023-08-14T16:06:11.953Z,97063.00
2023-08-14T16:08:38.972Z,97066.00
2023-08-14T16:11:05.815Z,97069.00
2023-08-14T16:13:33.767Z,97061.00
2023-08-14T16:16:00.752Z,97061.00
2023-08-14T16:18:27.629Z,97056.00
2023-08-14T16:20:54.493Z,97053.00
2023-08-14T16:23:21.469Z,97065.00
2023-08-14T16:25:48.399Z,97062.00
2023-08-14T16:28:15.337Z,97072.00
2023-08-14T16:30:42.342Z,97063.00
2023-08-14T16:33:09.262Z,97069.00
2023-08-14T16:35:36.135Z,97062.00
2023-08-14T16:38:03.203Z,97071.00
2023-08-14T16:40:30.095Z,97062.00
2023-08-14T16:42:57.890Z,97067.00
2023-08-14T16:45:25.283Z,97068.00
2023-08-14T16:47:52.311Z,97071.00
2023-08-14T16:50:19.399Z,97069.00
2023-08-14T16:52:46.612Z,97078.00
2023-08-14T16:55:16.288Z,97079.00
2023-08-14T16:57:43.563Z,97064.00
2023-08-14T17:00:12.972Z,97072.00
2023-08-14T17:02:40.389Z,97072.00
2023-08-14T17:05:08.376Z,97061.00
2023-08-14T17:07:35.344Z,97069.00
2023-08-14T17:10:02.160Z,97064.00
2023-08-14T17:12:28.991Z,97066.00
2023-08-14T17:14:57.646Z,97072.00
2023-08-14T17:17:24.720Z,97074.00
2023-08-14T17:19:51.716Z,97069.00
2023-08-14T17:22:18.715Z,97067.00
2023-08-14T17:24:45.538Z,97074.00
2023-08-14T17:27:12.412Z,97071.00
2023-08-14T17:29:39.295Z,97068.00
2023-08-14T17:32:06.337Z,97062.00
2023-08-14T17:34:33.343Z,97069.00
2023-08-14T17:37:00.215Z,97059.00
2023-08-14T17:39:27.017Z,97057.00
2023-08-14T17:41:57.667Z,97061.00
2023-08-14T17:44:25.037Z,97060.00
2023-08-14T17:46:52.160Z,97060.00
2023-08-14T17:49:19.358Z,97064.00
2023-08-14T17:51:46.163Z,97057.00
2023-08-14T17:54:12.986Z,97050.00
2023-08-14T17:56:39.850Z,97054.00
2023-08-14T17:59:07.878Z,97059.00
2023-08-14T18:01:34.954Z,97055.00
2023-08-14T18:04:01.899Z,97057.00
2023-08-14T18:06:28.824Z,97048.00
2023-08-14T18:08:55.669Z,97046.00
2023-08-14T18:11:22.561Z,97052.00
2023-08-14T18:13:49.522Z,97041.00
2023-08-14T18:16:16.483Z,97054.00
2023-08-14T18:18:43.316Z,97055.00
2023-08-14T18:21:11.197Z,97057.00
2023-08-14T18:23:39.028Z,97060.00
2023-08-14T18:26:06.418Z,97060.00
2023-08-14T18:28:33.290Z,97067.00
2023-08-14T18:31:00.174Z,97068.00
2023-08-14T18:33:27.077Z,97073.00
2023-08-14T18:35:53.878Z,97070.00
2023-08-14T18:38:20.682Z,97071.00
2023-08-14T18:40:47.476Z,97069.00
2023-08-14T18:43:14.724Z,97077.00
2023-08-14T18:45:41.728Z,97075.00
2023-08-14T18:48:09.521Z,97080.00
2023-08-14T18:50:36.474Z,97089.00
2023-08-14T18:53:04.902Z,97092.00
2023-08-14T18:55:31.937Z,97088.00
2023-08-14T18:57:58.837Z,97087.00
2023-08-14T19:00:25.785Z,97093.00
2023-08-14T19:02:53.574Z,97097.00
2023-08-14T19:05:22.444Z,97090.00
2023-08-14T19:07:49.312Z,97089.00
2023-08-14T19:10:16.264Z,97097.00
2023-08-14T19:12:43.146Z,97093.00
2023-08-14T19:15:10.217Z,97085.00
2023-08-14T19:17:37.101Z,97098.00
2023-08-14T19:20:04.659Z,97098.00
2023-08-14T19:22:31.646Z,97103.00
2023-08-14T19:24:58.589Z,97101.00
2023-08-14T19:27:25.396Z,97106.00
2023-08-14T19:29:52.220Z,97108.00
2023-08-14T19:32:19.106Z,97109.00
2023-08-14T19:34:45.901Z,97101.00
2023-08-14T19:37:15.580Z,97109.00
2023-08-14T19:39:42.378Z,97113.00
2023-08-14T19:42:09.287Z,97117.00
2023-08-14T19:44:36.170Z,97110.00
2023-08-14T19:47:03.083Z,97106.00
2023-08-14T19:49:29.919Z,97117.00
2023-08-14T19:51:56.796Z,97118.00
2023-08-14T19:54:23.759Z,97117.00
2023-08-14T19:56:50.841Z,97109.00
2023-08-14T19:59:17.681Z,97107.00
2023-08-14T20:01:44.551Z,97106.00
2023-08-14T20:04:11.516Z,97107.00
2023-08-14T20:06:38.967Z,97107.00
2023-08-14T20:09:06.790Z,97109.00
2023-08-14T20:11:33.863Z,97117.00
2023-08-14T20:14:00.661Z,97108.00
2023-08-14T20:16:27.538Z,97114.00
2023-08-14T20:18:54.416Z,97115.00
2023-08-14T20:21:21.250Z,97107.00
2023-08-14T20:23:48.058Z,97111.00
2023-08-14T20:26:14.936Z,97102.00
2023-08-14T20:28:44.061Z,97104.00
2023-08-14T20:31:23.244Z,97112.00
2023-08-14T20:33:50.705Z,97107.00
2023-08-14T20:36:27.931Z,97115.00
2023-08-14T20:38:55.127Z,97108.00
2023-08-14T20:41:21.966Z,97116.00
2023-08-14T20:43:49.546Z,97113.00
2023-08-14T20:46:16.475Z,97108.00
2023-08-14T20:48:43.470Z,97124.00
2023-08-14T20:51:10.681Z,97115.00
2023-08-14T20:53:38.181Z,97108.00
2023-08-14T20:56:05.244Z,97101.00
2023-08-14T20:58:32.125Z,97110.00
2023-08-14T21:00:58.945Z,97112.00
2023-08-14T21:03:25.939Z,97116.00
2023-08-14T21:05:55.011Z,97121.00
2023-08-14T21:08:22.502Z,97125.00
2023-08-14T21:10:49.383Z,97117.00
2023-08-14T21:13:16.297Z,97123.00
2023-08-14T21:15:43.287Z,97118.00
2023-08-14T21:18:10.185Z,97124.00
2023-08-14T21:20:37.134Z,97109.00
2023-08-14T21:23:04.261Z,97115.00
2023-08-14T21:25:44.088Z,97111.00
2023-08-14T21:28:13.844Z,97109.00
2023-08-14T21:30:40.710Z,97118.00
2023-08-14T21:33:07.852Z,97109.00
2023-08-14T21:35:34.715Z,97100.00
2023-08-14T21:38:01.532Z,97101.00
2023-08-14T21:40:28.348Z,97108.00
2023-08-14T21:42:57.076Z,97116.00
2023-08-14T21:45:24.108Z,97109.00
2023-08-14T21:47:50.952Z,97116.00
2023-08-14T21:50:17.845Z,97111.00
2023-08-14T21:52:44.629Z,97107.00
2023-08-14T21:55:11.423Z,97106.00
2023-08-14T21:57:38.295Z,97115.00
2023-08-14T22:00:08.682Z,97102.00
2023-08-14T22:02:35.645Z,97112.00
2023-08-14T22:05:02.810Z,97116.00
2023-08-14T22:07:29.704Z,97114.00
2023-08-14T22:09:56.539Z,97112.00
2023-08-14T22:12:23.404Z,97112.00
2023-08-14T22:14:50.275Z,97111.00
2023-08-14T22:17:17.275Z,97111.00
2023-08-14T22:19:44.378Z,97112.00
2023-08-14T22:22:11.312Z,97115.00
2023-08-14T22:24:40.568Z,97111.00
2023-08-14T22:27:08.894Z,97105.00
2023-08-14T22:29:35.780Z,97112.00
2023-08-14T22:32:02.717Z,97112.00
2023-08-14T22:34:29.683Z,97117.00
2023-08-14T22:36:56.516Z,97115.00
2023-08-14T22:39:23.381Z,97109.00
2023-08-14T22:41:50.247Z,97114.00
2023-08-14T22:44:17.025Z,97115.00
2023-08-14T22:46:43.896Z,97115.00
2023-08-14T22:49:11.970Z,97112.00
2023-08-14T22:51:38.781Z,97114.00
2023-08-14T22:54:05.947Z,97106.00
2023-08-14T22:56:32.897Z,97114.00
2023-08-14T22:58:59.689Z,97112.00
2023-08-14T23:01:26.572Z,97114.00
2023-08-14T23:03:53.411Z,97113.00
2023-08-14T23:06:20.241Z,97109.00
2023-08-14T23:08:47.036Z,97111.00
2023-08-14T23:11:13.904Z,97109.00
2023-08-14T23:13:40.826Z,97112.00
2023-08-14T23:16:07.633Z,97107.00
2023-08-14T23:18:34.588Z,97101.00
2023-08-14T23:21:01.740Z,97110.00
2023-08-14T23:23:28.572Z,97103.00
2023-08-14T23:25:55.370Z,97112.00
2023-08-14T23:28:22.215Z,97103.00
2023-08-14T23:30:50.130Z,97106.00
2023-08-14T23:33:17.075Z,97104.00
2023-08-14T23:35:45.458Z,97100.00
2023-08-14T23:38:12.276Z,97109.00
2023-08-14T23:40:39.124Z,97112.00
2023-08-14T23:43:05.942Z,97107.00
2023-08-14T23:45:32.794Z,97116.00
2023-08-14T23:47:59.855Z,97115.00
2023-08-14T23:50:26.795Z,97108.00
2023-08-14T23:52:53.614Z,97115.00
2023-08-14T23:55:20.440Z,97106.00
2023-08-14T23:57:47.321Z,97112.00
